KASX/ASX METAR and TAF weather

Enter ICAO airport designator
Station Type Date Time Source
KASX METAR 2020/06/06 13:53 UTC NOAA

KASX 061353Z AUTO 06006KT 10SM FEW017 SCT024 OVC036 14/10 A3018 RMK AO2 SLP222 T01390100


Station Type Date Time Source
KASX Decoded METAR 2020/06/06 13:53 UTC NOAA

ASHLAND KENNEDY MEMORIAL, WI, United States (KASX) 46-33N 090-55W 251M
Jun 06, 2020 - 09:53 AM EDT / 2020.06.06 1353 UTC
Wind: from the ENE (060 degrees) at 7 MPH (6 KT):0
Visibility: 10 mile(s):0
Sky conditions: overcast
Temperature: 57.0 F (13.9 C)
Dew Point: 50.0 F (10.0 C)
Relative Humidity: 77%
Pressure (altimeter): 30.18 in. Hg (1022 hPa)
ob: KASX 061353Z AUTO 06006KT 10SM FEW017 SCT024 OVC036 14/10 A3018 RMK AO2 SLP222 T01390100
cycle: 14

Station Type Date Time Source
KASX TAF UTC NOAA

Error!

Example: see airport list